createdAt,value
2017-03-13T00:00:47.277Z,1.23
2017-03-13T00:01:47.272Z,1.16
2017-03-13T00:02:47.244Z,1.12
2017-03-13T00:03:47.644Z,1.15
2017-03-13T00:04:47.215Z,1.14
2017-03-13T00:05:47.213Z,1.16
2017-03-13T00:06:47.569Z,1.15
2017-03-13T00:07:47.561Z,1.14
2017-03-13T00:08:47.542Z,1.16
2017-03-13T00:09:47.529Z,1.3
2017-03-13T00:10:47.516Z,1.26
2017-03-13T00:11:47.526Z,1.18
2017-03-13T00:12:47.495Z,1.18
2017-03-13T00:13:47.468Z,1.18
2017-03-13T00:14:47.462Z,1.18
2017-03-13T00:15:47.474Z,1.29
2017-03-13T00:16:47.450Z,1.23
2017-03-13T00:17:47.413Z,1.29
2017-03-13T00:18:47.395Z,1.23
2017-03-13T00:19:47.393Z,1.3
2017-03-13T00:20:47.364Z,1.2
2017-03-13T00:21:47.352Z,1.32
2017-03-13T00:22:47.346Z,1.27
2017-03-13T00:23:47.326Z,1.3
2017-03-13T00:24:47.307Z,1.32
2017-03-13T00:25:47.311Z,1.23
2017-03-13T00:26:47.273Z,1.26
2017-03-13T00:27:47.262Z,1.23
2017-03-13T00:28:47.252Z,1.23
2017-03-13T00:29:46.847Z,1.27
2017-03-13T00:30:47.214Z,1.11
2017-03-13T00:31:47.206Z,1.11
2017-03-13T00:32:47.190Z,1.12
2017-03-13T00:33:46.786Z,1.12
2017-03-13T00:34:47.159Z,1.16
2017-03-13T00:35:47.145Z,1.02
2017-03-13T00:36:46.753Z,1.08
2017-03-13T00:37:47.117Z,1.02
2017-03-13T00:38:46.742Z,1.04
2017-03-13T00:39:46.706Z,1.04
2017-03-13T00:40:47.069Z,0.98
2017-03-13T00:41:47.051Z,1.11
2017-03-13T00:42:47.055Z,1.05
2017-03-13T00:43:47.021Z,1.09
2017-03-13T00:44:47.006Z,1.04
2017-03-13T00:45:47.002Z,1.02
2017-03-13T00:46:46.993Z,1.11
2017-03-13T00:47:46.965Z,1.11
2017-03-13T00:48:46.947Z,1.06
2017-03-13T00:49:46.941Z,1.08
2017-03-13T00:50:46.929Z,1
2017-03-13T00:51:46.904Z,1.04
2017-03-13T00:52:46.888Z,1.02
2017-03-13T00:53:46.923Z,1.02
2017-03-13T00:54:46.856Z,0.94
2017-03-13T00:55:46.844Z,0.9
2017-03-13T00:56:46.465Z,0.96
2017-03-13T00:57:46.814Z,0.93
2017-03-13T00:58:46.799Z,0.97
2017-03-13T00:59:46.793Z,0.93
2017-03-13T01:00:46.768Z,0.94
2017-03-13T01:01:46.757Z,0.96
2017-03-13T01:02:46.741Z,0.93
2017-03-13T01:03:46.727Z,0.96
2017-03-13T01:04:46.725Z,0.94
2017-03-13T01:05:46.706Z,1.02
2017-03-13T01:06:46.681Z,1.06
2017-03-13T01:07:46.678Z,1
2017-03-13T01:08:46.649Z,0.97
2017-03-13T01:09:46.633Z,1
2017-03-13T01:10:46.248Z,1.04
2017-03-13T01:11:46.617Z,1.02
2017-03-13T01:12:46.597Z,1.04
2017-03-13T01:13:46.576Z,1.12
2017-03-13T01:14:46.560Z,1.02
2017-03-13T01:15:46.544Z,1.05
2017-03-13T01:16:46.530Z,1.02
2017-03-13T01:17:46.543Z,1.02
2017-03-13T01:18:46.507Z,0.94
2017-03-13T01:19:46.485Z,1.06
2017-03-13T01:20:46.490Z,1.06
2017-03-13T01:21:46.463Z,1.05
2017-03-13T01:22:46.455Z,1.08
2017-03-13T01:23:46.442Z,1.08
2017-03-13T01:24:46.426Z,1.04
2017-03-13T01:25:46.409Z,1.05
2017-03-13T01:26:46.382Z,0.97
2017-03-13T01:27:46.371Z,1.02
2017-03-13T01:28:46.350Z,1
2017-03-13T01:29:46.360Z,1.15
2017-03-13T01:30:46.333Z,1.11
2017-03-13T01:31:46.311Z,1.06
2017-03-13T01:32:46.294Z,1.11
2017-03-13T01:33:46.289Z,1.09
2017-03-13T01:34:46.272Z,1.04
2017-03-13T01:35:46.247Z,1.02
2017-03-13T01:36:46.241Z,1.06
2017-03-13T01:37:46.225Z,1.04
2017-03-13T01:38:46.212Z,1
2017-03-13T01:39:45.801Z,1.11
2017-03-13T01:40:46.177Z,1.06
2017-03-13T01:41:46.167Z,0.98
2017-03-13T01:42:46.154Z,0.98
2017-03-13T01:43:46.130Z,1
2017-03-13T01:44:46.114Z,1
2017-03-13T01:45:46.107Z,1.04
2017-03-13T01:46:46.093Z,1.08
2017-03-13T01:47:46.065Z,1.08
2017-03-13T01:48:46.062Z,1.15
2017-03-13T01:49:46.039Z,1.08
2017-03-13T01:50:46.025Z,1.14
2017-03-13T01:51:45.632Z,1.15
2017-03-13T01:52:46.012Z,1.18
2017-03-13T01:53:45.993Z,1.12
2017-03-13T01:54:45.961Z,1.14
2017-03-13T01:55:45.948Z,1.11
2017-03-13T01:56:45.553Z,1.16
2017-03-13T01:57:45.922Z,1.14
2017-03-13T01:58:45.901Z,1.16
2017-03-13T01:59:45.891Z,1.15
2017-03-13T02:00:45.873Z,1.23
2017-03-13T02:01:45.908Z,1.29
2017-03-13T02:02:45.846Z,1.27
2017-03-13T02:03:45.844Z,1.32
2017-03-13T02:04:45.822Z,1.32
2017-03-13T02:05:45.836Z,1.32
2017-03-13T02:06:45.419Z,1.27
2017-03-13T02:07:45.769Z,1.24
2017-03-13T02:08:45.750Z,1.32
2017-03-13T02:09:45.739Z,1.33
2017-03-13T02:10:45.726Z,1.33
2017-03-13T02:11:45.712Z,1.33
2017-03-13T02:12:45.701Z,1.32
2017-03-13T02:13:45.697Z,1.36
2017-03-13T02:14:45.668Z,1.37
2017-03-13T02:15:45.658Z,1.34
2017-03-13T02:16:45.649Z,1.32
2017-03-13T02:17:45.629Z,1.4
2017-03-13T02:18:45.623Z,1.32
2017-03-13T02:19:45.601Z,1.34
2017-03-13T02:20:45.579Z,1.34
2017-03-13T02:21:45.566Z,1.27
2017-03-13T02:22:45.545Z,1.23
2017-03-13T02:23:45.532Z,1.23
2017-03-13T02:24:45.131Z,1.33
2017-03-13T02:25:45.507Z,1.27
2017-03-13T02:26:45.487Z,1.3
2017-03-13T02:27:45.087Z,1.27
2017-03-13T02:28:45.463Z,1.34
2017-03-13T02:29:45.462Z,1.26
2017-03-13T02:30:45.435Z,1.29
2017-03-13T02:31:45.416Z,1.18
2017-03-13T02:32:45.404Z,1.23
2017-03-13T02:33:45.390Z,1.2
2017-03-13T02:34:45.401Z,1.3
2017-03-13T02:35:45.355Z,1.2
2017-03-13T02:36:45.341Z,1.24
2017-03-13T02:37:45.325Z,1.18
2017-03-13T02:38:45.317Z,1.12
2017-03-13T02:39:45.298Z,1.12
2017-03-13T02:40:45.278Z,1.14
2017-03-13T02:41:45.267Z,1.11
2017-03-13T02:42:45.261Z,1.15
2017-03-13T02:43:45.239Z,1.11
2017-03-13T02:44:45.231Z,1.15
2017-03-13T02:45:45.217Z,1.14
2017-03-13T02:46:45.213Z,1.11
2017-03-13T02:47:45.188Z,1.14
2017-03-13T02:48:45.171Z,1.15
2017-03-13T02:49:45.155Z,1.15
2017-03-13T02:50:45.131Z,1.2
2017-03-13T02:51:45.125Z,1.12
2017-03-13T02:52:45.105Z,1.14
2017-03-13T02:53:45.104Z,1.14
2017-03-13T02:54:45.084Z,1.04
2017-03-13T02:55:45.059Z,1.02
2017-03-13T02:56:45.047Z,1.08
2017-03-13T02:57:45.034Z,1.12
2017-03-13T02:58:45.012Z,1.02
2017-03-13T02:59:44.999Z,1.04
2017-03-13T03:00:44.987Z,1.05
2017-03-13T03:01:44.970Z,1.05
2017-03-13T03:02:44.956Z,1.04
2017-03-13T03:03:44.944Z,1.02
2017-03-13T03:04:44.922Z,1.09
2017-03-13T03:05:44.911Z,1.09
2017-03-13T03:06:44.897Z,1
2017-03-13T03:07:44.879Z,1.02
2017-03-13T03:08:44.865Z,0.97
2017-03-13T03:09:44.844Z,1.04
2017-03-13T03:10:44.849Z,0.96
2017-03-13T03:11:44.821Z,1
2017-03-13T03:12:44.809Z,0.93
2017-03-13T03:13:44.790Z,1
2017-03-13T03:14:44.775Z,0.98
2017-03-13T03:15:44.790Z,1
2017-03-13T03:16:44.752Z,0.98
2017-03-13T03:17:44.340Z,0.93
2017-03-13T03:18:44.712Z,0.9
2017-03-13T03:19:44.712Z,0.9
2017-03-13T03:20:44.683Z,0.94
2017-03-13T03:21:44.676Z,0.83
2017-03-13T03:22:44.653Z,0.86
2017-03-13T03:23:44.633Z,0.86
2017-03-13T03:24:44.619Z,0.84
2017-03-13T03:25:44.612Z,0.75
2017-03-13T03:26:44.588Z,0.83
2017-03-13T03:27:44.218Z,0.8
2017-03-13T03:28:44.568Z,0.72
2017-03-13T03:29:44.569Z,0.88
2017-03-13T03:30:44.536Z,0.84
2017-03-13T03:31:44.516Z,0.93
2017-03-13T03:32:44.500Z,0.84
2017-03-13T03:33:44.487Z,0.84
2017-03-13T03:34:44.102Z,0.88
2017-03-13T03:35:44.463Z,0.79
2017-03-13T03:36:44.437Z,0.75
2017-03-13T03:37:44.453Z,0.78
2017-03-13T03:38:44.417Z,0.76
2017-03-13T03:39:44.399Z,0.76
2017-03-13T03:40:44.003Z,0.76
2017-03-13T03:41:44.379Z,0.75
2017-03-13T03:42:44.350Z,0.8
2017-03-13T03:43:44.337Z,0.79
2017-03-13T03:44:44.318Z,0.8
2017-03-13T03:45:44.304Z,0.72
2017-03-13T03:46:44.287Z,0.79
2017-03-13T03:47:44.298Z,0.65
2017-03-13T03:48:44.267Z,0.62
2017-03-13T03:49:44.259Z,0.68
2017-03-13T03:50:44.233Z,0.66
2017-03-13T03:51:43.836Z,0.73
2017-03-13T03:52:44.195Z,0.73
2017-03-13T03:53:44.190Z,0.55
2017-03-13T03:54:44.166Z,0.58
2017-03-13T03:55:44.173Z,0.55
2017-03-13T03:56:44.150Z,0.69
2017-03-13T03:57:44.147Z,0.62
2017-03-13T03:58:44.103Z,0.46
2017-03-13T03:59:44.087Z,0.5
2017-03-13T04:00:44.092Z,0.44
2017-03-13T04:01:44.058Z,0.47
2017-03-13T04:02:44.043Z,0.47
2017-03-13T04:03:44.038Z,0.42
2017-03-13T04:04:44.010Z,0.38
2017-03-13T04:05:43.996Z,0.38
2017-03-13T04:06:43.987Z,0.39
2017-03-13T04:07:43.590Z,0.41
2017-03-13T04:08:43.949Z,0.36
2017-03-13T04:09:43.567Z,0.33
2017-03-13T04:10:43.919Z,0.39
2017-03-13T04:11:43.905Z,0.32
2017-03-13T04:12:43.891Z,0.32
2017-03-13T04:13:43.892Z,0.29
2017-03-13T04:14:43.861Z,0.28
2017-03-13T04:15:43.844Z,0.28
2017-03-13T04:16:43.839Z,0.32
2017-03-13T04:17:43.813Z,0.21
2017-03-13T04:18:43.795Z,0.24
2017-03-13T04:19:43.789Z,0.23
2017-03-13T04:20:43.801Z,0.18
2017-03-13T04:21:43.748Z,0.31
2017-03-13T04:22:43.762Z,0.18
2017-03-13T04:23:43.729Z,0.23
2017-03-13T04:24:43.713Z,0.24
2017-03-13T04:25:43.688Z,0.2
2017-03-13T04:26:43.301Z,0.15
2017-03-13T04:27:43.658Z,0.15
2017-03-13T04:28:43.664Z,0.23
2017-03-13T04:29:43.634Z,0.14
2017-03-13T04:30:43.617Z,0.11
2017-03-13T04:31:43.609Z,0.21
2017-03-13T04:32:43.580Z,0.04
2017-03-13T04:33:43.568Z,0.11
2017-03-13T04:34:43.551Z,0.11
2017-03-13T04:35:43.535Z,0.03
2017-03-13T04:36:43.151Z,0.11
2017-03-13T04:37:43.498Z,0.07
2017-03-13T04:38:43.493Z,0.11
2017-03-13T04:39:43.477Z,0.08
2017-03-13T04:40:43.478Z,0.1
2017-03-13T04:41:43.438Z,0.02
2017-03-13T04:42:43.421Z,0.1
2017-03-13T04:43:43.409Z,0.08
2017-03-13T04:44:43.404Z,0.02
2017-03-13T04:45:43.382Z,0.02
2017-03-13T04:46:43.378Z,-0.05
2017-03-13T04:47:43.359Z,0.02
2017-03-13T04:48:43.333Z,0
2017-03-13T04:49:42.936Z,0
2017-03-13T04:50:43.304Z,0.04
2017-03-13T04:51:43.283Z,-0.05
2017-03-13T04:52:43.277Z,-0.08
2017-03-13T04:53:43.260Z,-0.01
2017-03-13T04:54:42.849Z,0.02
2017-03-13T04:55:43.216Z,-0.01
2017-03-13T04:56:43.214Z,0.03
2017-03-13T04:57:43.189Z,-0.03
2017-03-13T04:58:43.212Z,-0.04
2017-03-13T04:59:43.155Z,-0.01
2017-03-13T05:00:42.764Z,-0.04
2017-03-13T05:01:43.133Z,-0.04
2017-03-13T05:02:43.130Z,-0.03
2017-03-13T05:03:43.093Z,-0.07
2017-03-13T05:04:43.088Z,-0.04
2017-03-13T05:05:42.688Z,-0.14
2017-03-13T05:06:43.047Z,-0.03
2017-03-13T05:07:43.029Z,-0.18
2017-03-13T05:08:43.033Z,-0.07
2017-03-13T05:09:43.001Z,0
2017-03-13T05:10:42.599Z,-0.07
2017-03-13T05:11:42.969Z,-0.21
2017-03-13T05:12:42.965Z,-0.05
2017-03-13T05:13:42.563Z,-0.11
2017-03-13T05:14:42.919Z,-0.07
2017-03-13T05:15:42.910Z,-0.04
2017-03-13T05:16:42.894Z,-0.07
2017-03-13T05:17:42.872Z,-0.03
2017-03-13T05:18:42.863Z,0.11
2017-03-13T05:19:42.839Z,0.11
2017-03-13T05:20:42.829Z,0.11
2017-03-13T05:21:42.811Z,0.17
2017-03-13T05:22:42.804Z,0.15
2017-03-13T05:23:42.779Z,0.13
2017-03-13T05:24:42.769Z,0.17
2017-03-13T05:25:42.755Z,0.13
2017-03-13T05:26:42.745Z,0.18
2017-03-13T05:27:42.714Z,0.11
2017-03-13T05:28:42.702Z,0.17
2017-03-13T05:29:42.700Z,0.17
2017-03-13T05:30:42.669Z,0.23
2017-03-13T05:31:42.673Z,0.15
2017-03-13T05:32:42.653Z,0.2
2017-03-13T05:33:42.619Z,0.24
2017-03-13T05:34:42.606Z,0.17
2017-03-13T05:35:42.587Z,0.21
2017-03-13T05:36:42.581Z,0.24
2017-03-13T05:37:42.559Z,0.18
2017-03-13T05:38:42.542Z,0.21
2017-03-13T05:39:42.534Z,0.32
2017-03-13T05:40:42.513Z,0.29
2017-03-13T05:41:42.497Z,0.29
2017-03-13T05:42:42.780Z,0.29
2017-03-13T05:43:42.479Z,0.35
2017-03-13T05:44:42.444Z,0.33
2017-03-13T05:45:42.432Z,0.38
2017-03-13T05:46:42.416Z,0.38
2017-03-13T05:47:42.401Z,0.46
2017-03-13T05:48:42.388Z,0.5
2017-03-13T05:49:42.001Z,0.53
2017-03-13T05:50:42.353Z,0.49
2017-03-13T05:51:42.334Z,0.61
2017-03-13T05:52:42.324Z,0.65
2017-03-13T05:53:42.333Z,0.72
2017-03-13T05:54:42.309Z,0.76
2017-03-13T05:55:42.300Z,0.8
2017-03-13T05:56:42.274Z,0.93
2017-03-13T05:57:42.249Z,0.88
2017-03-13T05:58:42.240Z,0.97
2017-03-13T05:59:42.219Z,1.06
2017-03-13T06:00:42.223Z,1.05
2017-03-13T06:01:42.184Z,1.08
2017-03-13T06:02:42.180Z,1.23
2017-03-13T06:03:42.171Z,1.37
2017-03-13T06:04:42.142Z,1.42
2017-03-13T06:05:42.130Z,1.33
2017-03-13T06:06:42.143Z,1.41
2017-03-13T06:07:42.353Z,1.47
2017-03-13T06:08:42.083Z,1.52
2017-03-13T06:09:42.063Z,1.59
2017-03-13T06:10:42.062Z,1.55
2017-03-13T06:11:42.059Z,1.59
2017-03-13T06:12:42.030Z,1.76
2017-03-13T06:13:42.015Z,1.86
2017-03-13T06:14:41.996Z,1.86
2017-03-13T06:15:41.978Z,1.98
2017-03-13T06:16:41.965Z,2.07
2017-03-13T06:17:41.963Z,2.21
2017-03-13T06:18:41.951Z,2.36
2017-03-13T06:19:41.920Z,2.6
2017-03-13T06:20:41.913Z,2.69
2017-03-13T06:21:41.915Z,2.87
2017-03-13T06:22:42.135Z,3.1
2017-03-13T06:23:41.883Z,3.31
2017-03-13T06:24:41.856Z,3.54
2017-03-13T06:25:41.842Z,3.62
2017-03-13T06:26:41.835Z,3.75
2017-03-13T06:27:41.816Z,3.94
2017-03-13T06:28:41.816Z,4
2017-03-13T06:29:41.807Z,4.14
2017-03-13T06:30:41.803Z,4.14
2017-03-13T06:31:41.771Z,4.3
2017-03-13T06:32:41.759Z,4.48
2017-03-13T06:33:41.370Z,4.66
2017-03-13T06:34:41.732Z,4.67
2017-03-13T06:35:41.730Z,4.67
2017-03-13T06:36:41.323Z,4.84
2017-03-13T06:37:41.706Z,4.78
2017-03-13T06:38:41.694Z,4.84
2017-03-13T06:39:41.676Z,4.77
2017-03-13T06:40:41.659Z,4.8
2017-03-13T06:41:41.647Z,4.82
2017-03-13T06:42:41.638Z,4.92
2017-03-13T06:43:41.626Z,4.96
2017-03-13T06:44:41.629Z,4.99
2017-03-13T06:45:41.613Z,5.04
2017-03-13T06:46:41.609Z,5.07
2017-03-13T06:47:41.581Z,5.15
2017-03-13T06:48:41.600Z,5.1
2017-03-13T06:49:41.195Z,5.17
2017-03-13T06:50:41.552Z,5.3
2017-03-13T06:51:41.571Z,5.21
2017-03-13T06:52:41.134Z,5.28
2017-03-13T06:53:41.762Z,5.38
2017-03-13T06:54:41.133Z,5.49
2017-03-13T06:55:41.504Z,5.51
2017-03-13T06:56:41.477Z,5.53
2017-03-13T06:57:41.480Z,5.57
2017-03-13T06:58:41.457Z,5.78
2017-03-13T06:59:41.450Z,5.78
2017-03-13T07:00:41.434Z,5.96
2017-03-13T07:01:41.431Z,6.17
2017-03-13T07:02:41.424Z,6.38
2017-03-13T07:03:41.398Z,6.59
2017-03-13T07:04:41.391Z,6.66
2017-03-13T07:05:41.384Z,6.94
2017-03-13T07:06:41.383Z,7.07
2017-03-13T07:07:41.391Z,7.28
2017-03-13T07:08:41.386Z,7.39
2017-03-13T07:09:41.348Z,7.58
2017-03-13T07:10:41.345Z,7.77
2017-03-13T07:11:41.337Z,7.98
2017-03-13T07:12:40.938Z,8
2017-03-13T07:13:41.310Z,8.02
2017-03-13T07:14:41.310Z,8.1
2017-03-13T07:15:41.320Z,8.23
2017-03-13T07:16:41.284Z,8.29
2017-03-13T07:17:41.295Z,8.4
2017-03-13T07:18:41.281Z,8.43
2017-03-13T07:19:41.283Z,8.48
2017-03-13T07:20:41.270Z,8.62
2017-03-13T07:21:41.242Z,8.62
2017-03-13T07:22:41.241Z,8.74
2017-03-13T07:23:41.223Z,8.79
2017-03-13T07:24:41.229Z,8.71
2017-03-13T07:25:41.211Z,8.73
2017-03-13T07:26:41.215Z,8.79
2017-03-13T07:27:41.208Z,8.66
2017-03-13T07:28:41.206Z,8.7
2017-03-13T07:29:41.182Z,8.59
2017-03-13T07:30:41.175Z,8.63
2017-03-13T07:31:41.175Z,8.52
2017-03-13T07:32:41.162Z,8.5
2017-03-13T07:33:41.155Z,8.55
2017-03-13T07:34:41.149Z,8.47
2017-03-13T07:35:41.154Z,8.34
2017-03-13T07:36:41.134Z,8.29
2017-03-13T07:37:40.741Z,8.15
2017-03-13T07:38:41.122Z,8.04
2017-03-13T07:39:41.109Z,7.97
2017-03-13T07:40:41.098Z,7.82
2017-03-13T07:41:41.101Z,7.93
2017-03-13T07:42:41.084Z,7.83
2017-03-13T07:43:41.077Z,7.86
2017-03-13T07:44:41.072Z,7.85
2017-03-13T07:45:41.061Z,7.9
2017-03-13T07:46:41.067Z,7.85
2017-03-13T07:47:41.046Z,7.79
2017-03-13T07:48:41.040Z,7.71
2017-03-13T07:49:41.055Z,7.85
2017-03-13T07:50:41.019Z,7.72
2017-03-13T07:51:41.035Z,7.68
2017-03-13T07:52:41.007Z,7.79
2017-03-13T07:53:41.003Z,7.68
2017-03-13T07:54:41.007Z,7.67
2017-03-13T07:55:40.994Z,7.69
2017-03-13T07:56:40.975Z,7.64
2017-03-13T07:57:40.965Z,7.64
2017-03-13T07:58:40.972Z,7.74
2017-03-13T07:59:40.950Z,7.87
2017-03-13T08:00:40.940Z,7.86
2017-03-13T08:01:40.946Z,7.87
2017-03-13T08:02:40.946Z,7.97
2017-03-13T08:03:40.945Z,8.04
2017-03-13T08:04:40.525Z,8.18
2017-03-13T08:05:40.906Z,8.12
2017-03-13T08:06:40.891Z,8.22
2017-03-13T08:07:40.880Z,8.2
2017-03-13T08:08:40.877Z,8.29
2017-03-13T08:09:40.871Z,8.34
2017-03-13T08:10:40.871Z,8.29
2017-03-13T08:11:40.864Z,8.29
2017-03-13T08:12:40.848Z,8.3
2017-03-13T08:13:40.832Z,8.26
2017-03-13T08:14:40.826Z,8.34
2017-03-13T08:15:40.820Z,8.33
2017-03-13T08:16:40.831Z,8.37
2017-03-13T08:17:40.821Z,8.44
2017-03-13T08:18:40.793Z,8.47
2017-03-13T08:19:40.414Z,8.47
2017-03-13T08:20:40.396Z,8.48
2017-03-13T08:21:40.774Z,8.47
2017-03-13T08:22:40.774Z,8.47
2017-03-13T08:23:40.760Z,8.47
2017-03-13T08:24:40.750Z,8.47
2017-03-13T08:25:40.350Z,8.5
2017-03-13T08:26:40.344Z,8.61
2017-03-13T08:27:40.729Z,8.55
2017-03-13T08:28:40.724Z,8.66
2017-03-13T08:29:40.709Z,8.74
2017-03-13T08:30:40.305Z,8.83
2017-03-13T08:31:40.689Z,8.86
2017-03-13T08:32:40.677Z,8.98
2017-03-13T08:33:40.286Z,8.98
2017-03-13T08:34:40.661Z,9.02
2017-03-13T08:35:40.662Z,9.24
2017-03-13T08:36:40.650Z,9.24
2017-03-13T08:37:40.255Z,9.32
2017-03-13T08:38:40.639Z,9.36
2017-03-13T08:39:40.646Z,9.39
2017-03-13T08:40:40.231Z,9.38
2017-03-13T08:41:40.616Z,9.38
2017-03-13T08:42:40.597Z,9.48
2017-03-13T08:43:40.853Z,9.5
2017-03-13T08:44:40.588Z,9.54
2017-03-13T08:45:40.577Z,9.66
2017-03-13T08:46:40.565Z,9.72
2017-03-13T08:47:40.558Z,9.68
2017-03-13T08:48:40.560Z,9.76
2017-03-13T08:49:40.568Z,9.86
2017-03-13T08:50:40.540Z,9.89
2017-03-13T08:51:40.529Z,9.9
2017-03-13T08:52:40.524Z,10.12
2017-03-13T08:53:40.534Z,10.18
2017-03-13T08:54:40.505Z,10.18
2017-03-13T08:55:40.499Z,10.23
2017-03-13T08:56:40.497Z,10.3
2017-03-13T08:57:40.107Z,10.36
2017-03-13T08:58:40.474Z,10.33
2017-03-13T08:59:40.483Z,10.32
2017-03-13T09:00:40.461Z,10.32
2017-03-13T09:01:40.480Z,10.17
2017-03-13T09:02:40.446Z,10.18
2017-03-13T09:03:40.443Z,10.07
2017-03-13T09:04:40.441Z,10.11
2017-03-13T09:05:40.430Z,10.14
2017-03-13T09:06:40.421Z,10.07
2017-03-13T09:07:40.047Z,10.01
2017-03-13T09:08:40.421Z,10.07
2017-03-13T09:09:40.401Z,10.09
2017-03-13T09:10:40.023Z,9.99
2017-03-13T09:11:40.413Z,10.08
2017-03-13T09:12:40.405Z,9.99
2017-03-13T09:13:40.382Z,9.96
2017-03-13T09:14:39.991Z,9.83
2017-03-13T09:15:40.390Z,9.87
2017-03-13T09:16:40.371Z,9.81
2017-03-13T09:17:40.358Z,9.68
2017-03-13T09:18:40.343Z,9.74
2017-03-13T09:19:40.341Z,9.68
2017-03-13T09:20:40.330Z,9.65
2017-03-13T09:21:40.318Z,9.61
2017-03-13T09:22:40.338Z,9.66
2017-03-13T09:23:40.306Z,9.69
2017-03-13T09:24:40.310Z,9.64
2017-03-13T09:25:40.301Z,9.68
2017-03-13T09:26:39.894Z,9.71
2017-03-13T09:27:40.270Z,9.71
2017-03-13T09:28:39.879Z,9.79
2017-03-13T09:29:39.876Z,9.84
2017-03-13T09:30:40.282Z,9.89
2017-03-13T09:31:39.857Z,9.83
2017-03-13T09:32:39.871Z,9.84
2017-03-13T09:33:39.846Z,9.86
2017-03-13T09:34:40.224Z,9.71
2017-03-13T09:35:40.224Z,9.64
2017-03-13T09:36:40.250Z,9.61
2017-03-13T09:37:40.195Z,9.58
2017-03-13T09:38:40.187Z,9.47
2017-03-13T09:39:40.183Z,9.53
2017-03-13T09:40:40.181Z,9.5
2017-03-13T09:41:40.173Z,9.5
2017-03-13T09:42:39.777Z,9.5
2017-03-13T09:43:40.156Z,9.42
2017-03-13T09:44:40.153Z,9.43
2017-03-13T09:45:40.187Z,9.5
2017-03-13T09:46:40.131Z,9.47
2017-03-13T09:47:40.123Z,9.46
2017-03-13T09:48:40.123Z,9.54
2017-03-13T09:49:39.734Z,9.64
2017-03-13T09:50:40.096Z,9.72
2017-03-13T09:51:39.721Z,9.69
2017-03-13T09:52:39.713Z,9.69
2017-03-13T09:53:40.075Z,9.69
2017-03-13T09:54:40.064Z,9.66
2017-03-13T09:55:40.058Z,9.71
2017-03-13T09:56:40.052Z,9.68
2017-03-13T09:57:40.053Z,9.65
2017-03-13T09:58:40.056Z,9.66
2017-03-13T09:59:40.037Z,9.65
2017-03-13T10:00:39.649Z,9.58
2017-03-13T10:01:40.019Z,9.54
2017-03-13T10:02:40.010Z,9.57
2017-03-13T10:03:39.996Z,9.65
2017-03-13T10:04:40.008Z,9.6
2017-03-13T10:05:39.982Z,9.66
2017-03-13T10:06:39.604Z,9.69
2017-03-13T10:07:39.974Z,9.76
2017-03-13T10:08:39.978Z,9.75
2017-03-13T10:09:39.958Z,9.9
2017-03-13T10:10:39.945Z,9.91
2017-03-13T10:11:39.974Z,10.02
2017-03-13T10:12:39.939Z,9.99
2017-03-13T10:13:39.937Z,10.14
2017-03-13T10:14:39.547Z,10.18
2017-03-13T10:15:39.922Z,10.29
2017-03-13T10:16:39.519Z,10.27
2017-03-13T10:17:39.907Z,10.42
2017-03-13T10:18:39.517Z,10.52
2017-03-13T10:19:39.891Z,10.61
2017-03-13T10:20:39.895Z,10.61
2017-03-13T10:21:39.871Z,10.76
2017-03-13T10:22:39.474Z,10.74
2017-03-13T10:23:39.868Z,10.78
2017-03-13T10:24:39.865Z,10.86
2017-03-13T10:25:39.863Z,11.06
2017-03-13T10:26:39.459Z,11.14
2017-03-13T10:27:39.842Z,11.17
2017-03-13T10:28:40.019Z,11.19
2017-03-13T10:29:39.440Z,11.4
2017-03-13T10:30:39.800Z,11.47
2017-03-13T10:31:39.795Z,11.55
2017-03-13T10:32:39.791Z,11.67
2017-03-13T10:33:39.393Z,11.7
2017-03-13T10:34:39.781Z,11.82
2017-03-13T10:35:39.783Z,11.76
2017-03-13T10:36:39.792Z,11.75
2017-03-13T10:37:39.790Z,11.67
2017-03-13T10:38:39.746Z,11.69
2017-03-13T10:39:39.744Z,11.69
2017-03-13T10:40:39.751Z,11.55
2017-03-13T10:41:39.740Z,11.57
2017-03-13T10:42:39.726Z,11.55
2017-03-13T10:43:39.339Z,11.52
2017-03-13T10:44:38.957Z,11.57
2017-03-13T10:45:39.713Z,11.44
2017-03-13T10:46:39.704Z,11.49
2017-03-13T10:47:39.704Z,11.51
2017-03-13T10:48:39.695Z,11.49
2017-03-13T10:49:39.688Z,11.52
2017-03-13T10:50:39.676Z,11.54
2017-03-13T10:51:39.690Z,11.67
2017-03-13T10:52:39.298Z,11.67
2017-03-13T10:53:39.656Z,11.55
2017-03-13T10:54:39.669Z,11.58
2017-03-13T10:55:39.259Z,11.58
2017-03-13T10:56:39.666Z,11.58
2017-03-13T10:57:39.634Z,11.6
2017-03-13T10:58:39.639Z,11.67
2017-03-13T10:59:39.632Z,11.61
2017-03-13T11:00:39.618Z,11.67
2017-03-13T11:01:39.624Z,11.72
2017-03-13T11:02:39.599Z,11.67
2017-03-13T11:03:39.632Z,11.67
2017-03-13T11:04:39.603Z,11.64
2017-03-13T11:05:39.605Z,11.54
2017-03-13T11:06:39.581Z,11.52
2017-03-13T11:07:39.574Z,11.65
2017-03-13T11:08:39.593Z,11.72
2017-03-13T11:09:39.561Z,11.75
2017-03-13T11:10:39.548Z,11.82
2017-03-13T11:11:39.554Z,11.8
2017-03-13T11:12:39.552Z,11.95
2017-03-13T11:13:39.541Z,11.94
2017-03-13T11:14:39.533Z,11.83
2017-03-13T11:15:39.526Z,11.96
2017-03-13T11:16:39.519Z,11.91
2017-03-13T11:17:39.521Z,12.01
2017-03-13T11:18:39.519Z,12.07
2017-03-13T11:19:39.506Z,12.17
2017-03-13T11:20:39.514Z,12.14
2017-03-13T11:21:39.499Z,12.14
2017-03-13T11:22:39.482Z,12.23
2017-03-13T11:23:39.490Z,12.23
2017-03-13T11:24:39.483Z,12.24
2017-03-13T11:25:39.477Z,12.32
2017-03-13T11:26:39.476Z,12.41
2017-03-13T11:27:39.455Z,12.45
2017-03-13T11:28:39.061Z,12.56
2017-03-13T11:29:39.459Z,12.52
2017-03-13T11:30:39.437Z,12.53
2017-03-13T11:31:39.436Z,12.54
2017-03-13T11:32:39.426Z,12.6
2017-03-13T11:33:39.427Z,12.64
2017-03-13T11:34:39.431Z,12.72
2017-03-13T11:35:39.410Z,12.68
2017-03-13T11:36:39.413Z,12.65
2017-03-13T11:37:39.396Z,12.65
2017-03-13T11:38:39.401Z,12.67
2017-03-13T11:39:39.388Z,12.71
2017-03-13T11:40:39.382Z,12.64
2017-03-13T11:41:39.381Z,12.68
2017-03-13T11:42:39.377Z,12.67
2017-03-13T11:43:39.367Z,12.72
2017-03-13T11:44:39.370Z,12.64
2017-03-13T11:45:39.354Z,12.68
2017-03-13T11:46:39.369Z,12.67
2017-03-13T11:47:39.374Z,12.71
2017-03-13T11:48:39.336Z,12.72
2017-03-13T11:49:39.357Z,12.74
2017-03-13T11:50:38.940Z,12.72
2017-03-13T11:51:39.337Z,12.7
2017-03-13T11:52:39.328Z,12.65
2017-03-13T11:53:39.323Z,12.74
2017-03-13T11:54:39.333Z,12.74
2017-03-13T11:55:39.307Z,12.75
2017-03-13T11:56:39.312Z,12.75
2017-03-13T11:57:39.289Z,12.79
2017-03-13T11:58:39.303Z,12.77
2017-03-13T11:59:39.290Z,12.85
2017-03-13T12:00:39.283Z,12.77
2017-03-13T12:01:39.279Z,12.74
2017-03-13T12:02:39.271Z,12.67
2017-03-13T12:03:39.262Z,12.57
2017-03-13T12:04:39.268Z,12.57
2017-03-13T12:05:39.262Z,12.46
2017-03-13T12:06:39.263Z,12.38
2017-03-13T12:07:39.257Z,12.34
2017-03-13T12:08:39.239Z,12.19
2017-03-13T12:09:39.228Z,12.14
2017-03-13T12:10:39.217Z,12.27
2017-03-13T12:11:39.226Z,12.27
2017-03-13T12:12:39.224Z,12.29
2017-03-13T12:13:39.205Z,12.27
2017-03-13T12:14:39.197Z,12.39
2017-03-13T12:15:39.200Z,12.38
2017-03-13T12:16:39.194Z,12.31
2017-03-13T12:17:39.196Z,12.23
2017-03-13T12:18:39.175Z,12.31
2017-03-13T12:19:39.495Z,12.31
2017-03-13T12:20:39.167Z,12.21
2017-03-13T12:21:39.173Z,12.14
2017-03-13T12:22:39.152Z,12.14
2017-03-13T12:23:39.154Z,12.07
2017-03-13T12:24:39.148Z,12.16
2017-03-13T12:25:39.151Z,12.14
2017-03-13T12:26:39.127Z,12.21
2017-03-13T12:27:39.122Z,12.21
2017-03-13T12:28:39.119Z,12.13
2017-03-13T12:29:39.120Z,12.2
2017-03-13T12:30:39.102Z,12.13
2017-03-13T12:31:39.103Z,12.16
2017-03-13T12:32:39.103Z,12.1
2017-03-13T12:33:39.085Z,12.14
2017-03-13T12:34:39.106Z,12.07
2017-03-13T12:35:39.080Z,12.13
2017-03-13T12:36:39.070Z,12.05
2017-03-13T12:37:39.066Z,12.12
2017-03-13T12:38:39.067Z,12.1
2017-03-13T12:39:39.051Z,12.14
2017-03-13T12:40:38.657Z,12.23
2017-03-13T12:41:39.039Z,12.2
2017-03-13T12:42:39.046Z,12.21
2017-03-13T12:43:39.029Z,12.31
2017-03-13T12:44:39.017Z,12.34
2017-03-13T12:45:39.016Z,12.37
2017-03-13T12:46:39.026Z,12.37
2017-03-13T12:47:39.022Z,12.34
2017-03-13T12:48:38.993Z,12.47
2017-03-13T12:49:38.992Z,12.46
2017-03-13T12:50:38.994Z,12.49
2017-03-13T12:54:15.840Z,12.49
2017-03-13T12:55:15.447Z,12.5
2017-03-13T12:56:15.434Z,12.46
2017-03-13T12:57:15.430Z,12.47
2017-03-13T12:58:15.433Z,12.5
2017-03-13T12:59:15.818Z,12.57
2017-03-13T13:00:15.010Z,12.59
2017-03-13T13:01:15.000Z,12.62
2017-03-13T13:02:15.379Z,12.65
2017-03-13T13:03:15.377Z,12.7
2017-03-13T13:04:15.371Z,12.62
2017-03-13T13:05:15.752Z,12.71
2017-03-13T13:06:15.742Z,12.92
2017-03-13T13:07:15.746Z,12.82
2017-03-13T13:08:15.345Z,12.92
2017-03-13T13:09:15.343Z,13.03
2017-03-13T13:10:15.717Z,13.04
2017-03-13T13:11:15.713Z,13.11
2017-03-13T13:12:15.714Z,13.11
2017-03-13T13:13:15.699Z,13.17
2017-03-13T13:14:15.698Z,13.17
2017-03-13T13:15:15.692Z,13.2
2017-03-13T13:16:15.685Z,13.39
2017-03-13T13:17:15.683Z,13.42